Argora, Idaho
Current Conditions -  °F | °C
As of 1:53 AM on Monday 20 Oct 2014 (Local Time) from KRXE Reporting Station
Clear Clear  
Wind Chill: 33°   Ceiling: Unl
Heat Index: 38°   Visibility: 10mi
Dew Point: 32°   Wind: 6mph
Humidity: 79%   Direction: 50°NE
Pressure: 30.07"   Gusts: NA
Location:  44.2396°N, 112.579°W
Report Text: KRXE 200753Z AUTO 05005KT 10SM CLR 03/00 A3007 RMK AO2 SLP168 T00330000
Loading
Personal Weather Stations






























Interactive Weather Map
Tropical Storm Tracking
New forecast layout! Learn more

10-Day Weather Forecast

Advertisements
Track Severe Weather on mobile